Xinjin, China
Current Conditions -  °F | °C
As of 7:00 PM on Saturday 20 Dec 2014 (Local Time) from ZUUU Reporting Station
Haze Haze  
Wind Chill: 45°   Ceiling: Unl
Heat Index: 45°   Visibility: 3mi
Dew Point: 32°   Wind: 0mph
Humidity: 61%   Direction: NA
Pressure: 30.27"   Gusts: NA
Location:  30.42°N, 103.82°E
Report Text: ZUUU 201100Z 00000MPS 5000 HZ NSC 07/00 Q1025 NOSIG
Loading
Personal Weather Stations






























Interactive Weather Map New forecast layout! Learn more

10-Day Weather Forecast

Advertisements
Track Severe Weather on mobile